sensor_id;sensor_type;location;lat;lon;timestamp;P1;durP1;ratioP1;P2;durP2;ratioP2
54787;SDS011;59598;48.112;16.280;2022-11-13T00:00:29;14.48;;;8.55;;
54787;SDS011;59598;48.112;16.280;2022-11-13T00:03:27;15.20;;;9.23;;
54787;SDS011;59598;48.112;16.280;2022-11-13T00:06:28;12.85;;;8.98;;
54787;SDS011;59598;48.112;16.280;2022-11-13T00:09:25;17.80;;;10.02;;
54787;SDS011;59598;48.112;16.280;2022-11-13T00:12:25;14.52;;;9.05;;
54787;SDS011;59598;48.112;16.280;2022-11-13T00:15:28;16.55;;;9.23;;
54787;SDS011;59598;48.112;16.280;2022-11-13T00:21:46;16.60;;;10.15;;
54787;SDS011;59598;48.112;16.280;2022-11-13T00:24:41;19.67;;;10.48;;
54787;SDS011;59598;48.112;16.280;2022-11-13T00:27:39;19.30;;;11.90;;
54787;SDS011;59598;48.112;16.280;2022-11-13T00:30:31;18.45;;;9.90;;
54787;SDS011;59598;48.112;16.280;2022-11-13T00:33:30;18.35;;;11.63;;
54787;SDS011;59598;48.112;16.280;2022-11-13T00:36:40;14.70;;;9.50;;
54787;SDS011;59598;48.112;16.280;2022-11-13T00:42:57;15.80;;;9.63;;
54787;SDS011;59598;48.112;16.280;2022-11-13T00:45:52;17.25;;;9.48;;
54787;SDS011;59598;48.112;16.280;2022-11-13T00:48:54;17.42;;;9.55;;
54787;SDS011;59598;48.112;16.280;2022-11-13T00:51:46;19.40;;;11.20;;
54787;SDS011;59598;48.112;16.280;2022-11-13T00:54:45;20.15;;;10.57;;
54787;SDS011;59598;48.112;16.280;2022-11-13T00:57:42;17.27;;;10.20;;
54787;SDS011;59598;48.112;16.280;2022-11-13T01:00:42;17.83;;;10.30;;
54787;SDS011;59598;48.112;16.280;2022-11-13T01:03:43;16.70;;;9.75;;
54787;SDS011;59598;48.112;16.280;2022-11-13T01:06:36;19.17;;;10.68;;
54787;SDS011;59598;48.112;16.280;2022-11-13T01:09:29;19.75;;;11.02;;
54787;SDS011;59598;48.112;16.280;2022-11-13T01:12:21;17.75;;;10.38;;
54787;SDS011;59598;48.112;16.280;2022-11-13T01:15:13;19.40;;;11.05;;
54787;SDS011;59598;48.112;16.280;2022-11-13T01:18:12;23.45;;;11.48;;
54787;SDS011;59598;48.112;16.280;2022-11-13T01:21:10;20.70;;;12.38;;
54787;SDS011;59598;48.112;16.280;2022-11-13T01:24:12;25.73;;;12.75;;
54787;SDS011;59598;48.112;16.280;2022-11-13T01:27:03;19.98;;;11.98;;
54787;SDS011;59598;48.112;16.280;2022-11-13T01:30:00;17.55;;;10.52;;
54787;SDS011;59598;48.112;16.280;2022-11-13T01:32:56;19.73;;;10.95;;
54787;SDS011;59598;48.112;16.280;2022-11-13T01:35:55;17.35;;;10.60;;
54787;SDS011;59598;48.112;16.280;2022-11-13T01:38:57;20.02;;;11.30;;
54787;SDS011;59598;48.112;16.280;2022-11-13T01:41:50;18.80;;;9.93;;
54787;SDS011;59598;48.112;16.280;2022-11-13T01:44:46;19.05;;;10.88;;
54787;SDS011;59598;48.112;16.280;2022-11-13T01:47:48;15.07;;;9.85;;
54787;SDS011;59598;48.112;16.280;2022-11-13T01:50:43;18.98;;;10.55;;
54787;SDS011;59598;48.112;16.280;2022-11-13T01:53:35;18.73;;;10.52;;
54787;SDS011;59598;48.112;16.280;2022-11-13T01:56:27;18.48;;;10.38;;
54787;SDS011;59598;48.112;16.280;2022-11-13T01:59:24;16.48;;;10.30;;
54787;SDS011;59598;48.112;16.280;2022-11-13T02:02:23;16.65;;;9.52;;
54787;SDS011;59598;48.112;16.280;2022-11-13T02:05:19;16.90;;;9.55;;
54787;SDS011;59598;48.112;16.280;2022-11-13T02:08:14;17.83;;;10.15;;
54787;SDS011;59598;48.112;16.280;2022-11-13T02:11:05;20.90;;;10.20;;
54787;SDS011;59598;48.112;16.280;2022-11-13T02:13:57;17.83;;;10.38;;
54787;SDS011;59598;48.112;16.280;2022-11-13T02:16:51;18.10;;;10.05;;
54787;SDS011;59598;48.112;16.280;2022-11-13T02:19:50;16.73;;;8.98;;
54787;SDS011;59598;48.112;16.280;2022-11-13T02:25:49;20.65;;;9.20;;
54787;SDS011;59598;48.112;16.280;2022-11-13T02:28:44;17.77;;;9.10;;
54787;SDS011;59598;48.112;16.280;2022-11-13T02:31:36;16.35;;;8.95;;
54787;SDS011;59598;48.112;16.280;2022-11-13T02:34:36;18.05;;;8.57;;
54787;SDS011;59598;48.112;16.280;2022-11-13T02:37:34;11.82;;;7.05;;
54787;SDS011;59598;48.112;16.280;2022-11-13T02:40:31;13.77;;;8.10;;
54787;SDS011;59598;48.112;16.280;2022-11-13T02:43:23;14.68;;;8.68;;
54787;SDS011;59598;48.112;16.280;2022-11-13T02:46:15;17.40;;;9.48;;
54787;SDS011;59598;48.112;16.280;2022-11-13T02:49:17;16.13;;;8.73;;
54787;SDS011;59598;48.112;16.280;2022-11-13T02:52:12;15.77;;;8.77;;
54787;SDS011;59598;48.112;16.280;2022-11-13T02:55:06;16.58;;;9.80;;
54787;SDS011;59598;48.112;16.280;2022-11-13T02:58:08;12.30;;;7.70;;
54787;SDS011;59598;48.112;16.280;2022-11-13T03:01:01;20.98;;;10.35;;
54787;SDS011;59598;48.112;16.280;2022-11-13T03:03:59;17.52;;;9.60;;
54787;SDS011;59598;48.112;16.280;2022-11-13T03:07:05;16.77;;;9.55;;
54787;SDS011;59598;48.112;16.280;2022-11-13T03:10:00;16.42;;;9.13;;
54787;SDS011;59598;48.112;16.280;2022-11-13T03:12:57;16.48;;;8.93;;
54787;SDS011;59598;48.112;16.280;2022-11-13T03:16:16;17.38;;;9.52;;
54787;SDS011;59598;48.112;16.280;2022-11-13T03:19:13;15.27;;;8.77;;
54787;SDS011;59598;48.112;16.280;2022-11-13T03:22:28;16.73;;;10.10;;
54787;SDS011;59598;48.112;16.280;2022-11-13T03:25:23;16.42;;;8.57;;
54787;SDS011;59598;48.112;16.280;2022-11-13T03:28:17;12.27;;;8.18;;
54787;SDS011;59598;48.112;16.280;2022-11-13T03:31:14;14.82;;;8.88;;
54787;SDS011;59598;48.112;16.280;2022-11-13T03:34:15;14.07;;;8.15;;
54787;SDS011;59598;48.112;16.280;2022-11-13T03:37:12;15.80;;;8.50;;
54787;SDS011;59598;48.112;16.280;2022-11-13T03:40:05;14.07;;;8.98;;
54787;SDS011;59598;48.112;16.280;2022-11-13T03:43:07;15.45;;;9.35;;
54787;SDS011;59598;48.112;16.280;2022-11-13T03:46:06;18.20;;;8.25;;
54787;SDS011;59598;48.112;16.280;2022-11-13T03:49:07;12.68;;;7.70;;
54787;SDS011;59598;48.112;16.280;2022-11-13T03:52:04;18.27;;;10.63;;
54787;SDS011;59598;48.112;16.280;2022-11-13T03:55:04;14.07;;;8.90;;
54787;SDS011;59598;48.112;16.280;2022-11-13T03:57:56;16.98;;;9.07;;
54787;SDS011;59598;48.112;16.280;2022-11-13T04:01:05;16.60;;;8.95;;
54787;SDS011;59598;48.112;16.280;2022-11-13T04:03:57;16.25;;;9.00;;
54787;SDS011;59598;48.112;16.280;2022-11-13T04:06:53;23.25;;;10.98;;
54787;SDS011;59598;48.112;16.280;2022-11-13T04:09:47;13.60;;;8.83;;
54787;SDS011;59598;48.112;16.280;2022-11-13T04:12:42;15.38;;;9.00;;
54787;SDS011;59598;48.112;16.280;2022-11-13T04:15:40;17.42;;;9.75;;
54787;SDS011;59598;48.112;16.280;2022-11-13T04:18:31;18.60;;;10.80;;
54787;SDS011;59598;48.112;16.280;2022-11-13T04:21:26;22.20;;;11.13;;
54787;SDS011;59598;48.112;16.280;2022-11-13T04:24:18;30.10;;;11.43;;
54787;SDS011;59598;48.112;16.280;2022-11-13T04:27:20;34.67;;;12.40;;
54787;SDS011;59598;48.112;16.280;2022-11-13T04:30:14;26.65;;;12.70;;
54787;SDS011;59598;48.112;16.280;2022-11-13T04:33:06;25.85;;;11.30;;
54787;SDS011;59598;48.112;16.280;2022-11-13T04:36:03;23.05;;;11.38;;
54787;SDS011;59598;48.112;16.280;2022-11-13T04:39:01;30.00;;;12.43;;
54787;SDS011;59598;48.112;16.280;2022-11-13T04:41:58;30.50;;;12.50;;
54787;SDS011;59598;48.112;16.280;2022-11-13T04:45:10;26.00;;;10.73;;
54787;SDS011;59598;48.112;16.280;2022-11-13T04:48:01;24.90;;;11.70;;
54787;SDS011;59598;48.112;16.280;2022-11-13T04:50:56;31.23;;;12.75;;
54787;SDS011;59598;48.112;16.280;2022-11-13T04:53:47;33.65;;;12.40;;
54787;SDS011;59598;48.112;16.280;2022-11-13T04:56:38;33.60;;;14.95;;
54787;SDS011;59598;48.112;16.280;2022-11-13T04:59:32;23.05;;;13.15;;
54787;SDS011;59598;48.112;16.280;2022-11-13T05:02:28;69.80;;;13.80;;
54787;SDS011;59598;48.112;16.280;2022-11-13T05:05:21;34.15;;;12.88;;
54787;SDS011;59598;48.112;16.280;2022-11-13T05:08:15;30.88;;;13.10;;
54787;SDS011;59598;48.112;16.280;2022-11-13T05:11:06;33.55;;;14.07;;
54787;SDS011;59598;48.112;16.280;2022-11-13T05:14:03;30.02;;;12.73;;
54787;SDS011;59598;48.112;16.280;2022-11-13T05:17:01;28.67;;;13.25;;
54787;SDS011;59598;48.112;16.280;2022-11-13T05:19:53;35.33;;;13.63;;
54787;SDS011;59598;48.112;16.280;2022-11-13T05:22:47;32.10;;;14.73;;
54787;SDS011;59598;48.112;16.280;2022-11-13T05:25:44;51.67;;;13.57;;
54787;SDS011;59598;48.112;16.280;2022-11-13T05:28:39;39.53;;;12.27;;
54787;SDS011;59598;48.112;16.280;2022-11-13T05:31:30;29.50;;;11.80;;
54787;SDS011;59598;48.112;16.280;2022-11-13T05:34:23;36.00;;;12.73;;
54787;SDS011;59598;48.112;16.280;2022-11-13T05:37:14;41.22;;;12.52;;
54787;SDS011;59598;48.112;16.280;2022-11-13T05:40:06;34.72;;;11.25;;
54787;SDS011;59598;48.112;16.280;2022-11-13T05:42:58;65.00;;;13.45;;
54787;SDS011;59598;48.112;16.280;2022-11-13T05:46:04;32.42;;;12.50;;
54787;SDS011;59598;48.112;16.280;2022-11-13T05:49:02;43.05;;;14.15;;
54787;SDS011;59598;48.112;16.280;2022-11-13T05:51:56;26.63;;;13.25;;
54787;SDS011;59598;48.112;16.280;2022-11-13T05:54:50;42.72;;;13.70;;
54787;SDS011;59598;48.112;16.280;2022-11-13T05:57:46;47.40;;;14.70;;
54787;SDS011;59598;48.112;16.280;2022-11-13T06:00:38;42.47;;;13.75;;
54787;SDS011;59598;48.112;16.280;2022-11-13T06:03:29;36.08;;;15.32;;
54787;SDS011;59598;48.112;16.280;2022-11-13T06:06:22;39.83;;;15.23;;
54787;SDS011;59598;48.112;16.280;2022-11-13T06:09:19;71.40;;;17.25;;
54787;SDS011;59598;48.112;16.280;2022-11-13T06:12:10;57.22;;;15.30;;
54787;SDS011;59598;48.112;16.280;2022-11-13T06:15:02;53.40;;;14.00;;
54787;SDS011;59598;48.112;16.280;2022-11-13T06:17:56;70.75;;;15.52;;
54787;SDS011;59598;48.112;16.280;2022-11-13T06:20:47;32.00;;;16.02;;
54787;SDS011;59598;48.112;16.280;2022-11-13T06:23:39;40.33;;;16.58;;
54787;SDS011;59598;48.112;16.280;2022-11-13T06:26:36;35.28;;;16.10;;
54787;SDS011;59598;48.112;16.280;2022-11-13T06:29:35;36.15;;;15.85;;
54787;SDS011;59598;48.112;16.280;2022-11-13T06:32:26;31.63;;;16.08;;
54787;SDS011;59598;48.112;16.280;2022-11-13T06:35:22;85.97;;;18.80;;
54787;SDS011;59598;48.112;16.280;2022-11-13T06:38:15;62.58;;;16.00;;
54787;SDS011;59598;48.112;16.280;2022-11-13T06:41:13;63.35;;;16.27;;
54787;SDS011;59598;48.112;16.280;2022-11-13T06:44:07;57.63;;;18.30;;
54787;SDS011;59598;48.112;16.280;2022-11-13T06:47:01;57.13;;;18.13;;
54787;SDS011;59598;48.112;16.280;2022-11-13T06:49:55;39.65;;;15.43;;
54787;SDS011;59598;48.112;16.280;2022-11-13T06:52:50;79.10;;;18.33;;
54787;SDS011;59598;48.112;16.280;2022-11-13T06:55:48;41.88;;;17.85;;
54787;SDS011;59598;48.112;16.280;2022-11-13T06:58:40;49.92;;;19.33;;
54787;SDS011;59598;48.112;16.280;2022-11-13T07:01:31;50.00;;;17.70;;
54787;SDS011;59598;48.112;16.280;2022-11-13T07:04:23;75.70;;;17.77;;
54787;SDS011;59598;48.112;16.280;2022-11-13T07:07:14;50.08;;;18.25;;
54787;SDS011;59598;48.112;16.280;2022-11-13T07:10:08;42.65;;;16.85;;
54787;SDS011;59598;48.112;16.280;2022-11-13T07:13:00;40.45;;;16.48;;
54787;SDS011;59598;48.112;16.280;2022-11-13T07:15:51;66.60;;;19.23;;
54787;SDS011;59598;48.112;16.280;2022-11-13T07:18:52;58.65;;;19.25;;
54787;SDS011;59598;48.112;16.280;2022-11-13T07:21:47;57.67;;;19.00;;
54787;SDS011;59598;48.112;16.280;2022-11-13T07:24:39;36.40;;;17.67;;
54787;SDS011;59598;48.112;16.280;2022-11-13T07:27:32;64.35;;;19.20;;
54787;SDS011;59598;48.112;16.280;2022-11-13T07:30:23;38.13;;;18.48;;
54787;SDS011;59598;48.112;16.280;2022-11-13T07:33:18;72.22;;;19.38;;
54787;SDS011;59598;48.112;16.280;2022-11-13T07:36:12;39.53;;;18.83;;
54787;SDS011;59598;48.112;16.280;2022-11-13T07:39:03;51.15;;;19.30;;
54787;SDS011;59598;48.112;16.280;2022-11-13T07:41:57;35.10;;;18.65;;
54787;SDS011;59598;48.112;16.280;2022-11-13T07:44:48;44.85;;;18.90;;
54787;SDS011;59598;48.112;16.280;2022-11-13T07:47:45;40.22;;;18.98;;
54787;SDS011;59598;48.112;16.280;2022-11-13T07:50:39;35.38;;;18.95;;
54787;SDS011;59598;48.112;16.280;2022-11-13T07:53:33;45.83;;;19.52;;
54787;SDS011;59598;48.112;16.280;2022-11-13T07:56:40;35.33;;;18.15;;
54787;SDS011;59598;48.112;16.280;2022-11-13T07:59:32;55.13;;;17.85;;
54787;SDS011;59598;48.112;16.280;2022-11-13T08:02:32;36.50;;;17.75;;
54787;SDS011;59598;48.112;16.280;2022-11-13T08:05:37;41.45;;;17.40;;
54787;SDS011;59598;48.112;16.280;2022-11-13T08:08:30;32.20;;;18.25;;
54787;SDS011;59598;48.112;16.280;2022-11-13T08:11:21;29.45;;;16.17;;
54787;SDS011;59598;48.112;16.280;2022-11-13T08:14:25;38.33;;;16.73;;
54787;SDS011;59598;48.112;16.280;2022-11-13T08:17:28;32.92;;;15.65;;
54787;SDS011;59598;48.112;16.280;2022-11-13T08:20:20;29.10;;;17.00;;
54787;SDS011;59598;48.112;16.280;2022-11-13T08:23:29;1937.00;;;626.08;;
54787;SDS011;59598;48.112;16.280;2022-11-13T08:26:24;904.97;;;481.05;;
54787;SDS011;59598;48.112;16.280;2022-11-13T08:29:24;525.90;;;367.80;;
54787;SDS011;59598;48.112;16.280;2022-11-13T08:32:21;263.42;;;207.52;;
54787;SDS011;59598;48.112;16.280;2022-11-13T08:35:35;414.88;;;331.55;;
54787;SDS011;59598;48.112;16.280;2022-11-13T08:38:32;122.05;;;85.45;;
54787;SDS011;59598;48.112;16.280;2022-11-13T08:41:33;235.60;;;178.60;;
54787;SDS011;59598;48.112;16.280;2022-11-13T08:44:25;159.83;;;84.80;;
54787;SDS011;59598;48.112;16.280;2022-11-13T08:47:22;75.70;;;39.90;;
54787;SDS011;59598;48.112;16.280;2022-11-13T08:50:18;507.25;;;310.30;;
54787;SDS011;59598;48.112;16.280;2022-11-13T08:53:39;415.38;;;235.85;;
54787;SDS011;59598;48.112;16.280;2022-11-13T08:56:30;677.70;;;415.05;;
54787;SDS011;59598;48.112;16.280;2022-11-13T08:59:28;541.00;;;360.48;;
54787;SDS011;59598;48.112;16.280;2022-11-13T09:02:24;505.75;;;332.05;;
54787;SDS011;59598;48.112;16.280;2022-11-13T09:05:16;455.17;;;254.90;;
54787;SDS011;59598;48.112;16.280;2022-11-13T09:08:08;178.68;;;104.93;;
54787;SDS011;59598;48.112;16.280;2022-11-13T09:11:05;66.55;;;36.15;;
54787;SDS011;59598;48.112;16.280;2022-11-13T09:13:59;130.30;;;75.45;;
54787;SDS011;59598;48.112;16.280;2022-11-13T09:16:53;114.03;;;73.45;;
54787;SDS011;59598;48.112;16.280;2022-11-13T09:19:44;55.58;;;27.63;;
54787;SDS011;59598;48.112;16.280;2022-11-13T09:22:38;54.25;;;26.88;;
54787;SDS011;59598;48.112;16.280;2022-11-13T09:25:33;258.83;;;131.77;;
54787;SDS011;59598;48.112;16.280;2022-11-13T09:28:30;102.53;;;70.18;;
54787;SDS011;59598;48.112;16.280;2022-11-13T09:31:27;247.80;;;189.15;;
54787;SDS011;59598;48.112;16.280;2022-11-13T09:34:21;96.63;;;74.63;;
54787;SDS011;59598;48.112;16.280;2022-11-13T09:37:14;52.65;;;31.70;;
54787;SDS011;59598;48.112;16.280;2022-11-13T09:40:10;396.87;;;287.33;;
54787;SDS011;59598;48.112;16.280;2022-11-13T09:43:27;452.50;;;402.60;;
54787;SDS011;59598;48.112;16.280;2022-11-13T09:46:35;64.60;;;45.25;;
54787;SDS011;59598;48.112;16.280;2022-11-13T09:49:43;121.28;;;103.18;;
54787;SDS011;59598;48.112;16.280;2022-11-13T09:52:44;44.90;;;33.13;;
54787;SDS011;59598;48.112;16.280;2022-11-13T09:55:39;162.93;;;127.07;;
54787;SDS011;59598;48.112;16.280;2022-11-13T10:02:07;35.42;;;21.58;;
54787;SDS011;59598;48.112;16.280;2022-11-13T10:05:24;30.42;;;17.63;;
54787;SDS011;59598;48.112;16.280;2022-11-13T10:11:59;33.17;;;16.50;;
54787;SDS011;59598;48.112;16.280;2022-11-13T10:15:02;36.38;;;20.23;;
54787;SDS011;59598;48.112;16.280;2022-11-13T10:17:59;34.22;;;16.60;;
54787;SDS011;59598;48.112;16.280;2022-11-13T10:20:56;35.33;;;18.63;;
54787;SDS011;59598;48.112;16.280;2022-11-13T10:23:56;37.35;;;19.45;;
54787;SDS011;59598;48.112;16.280;2022-11-13T10:26:57;34.45;;;17.05;;
54787;SDS011;59598;48.112;16.280;2022-11-13T10:29:50;31.58;;;16.75;;
54787;SDS011;59598;48.112;16.280;2022-11-13T10:32:46;30.00;;;17.42;;
54787;SDS011;59598;48.112;16.280;2022-11-13T10:35:43;38.13;;;22.10;;
54787;SDS011;59598;48.112;16.280;2022-11-13T10:38:57;30.90;;;17.77;;
54787;SDS011;59598;48.112;16.280;2022-11-13T10:41:57;33.90;;;18.40;;
54787;SDS011;59598;48.112;16.280;2022-11-13T10:44:56;31.80;;;18.30;;
54787;SDS011;59598;48.112;16.280;2022-11-13T10:47:50;33.42;;;17.13;;
54787;SDS011;59598;48.112;16.280;2022-11-13T10:50:42;29.67;;;17.40;;
54787;SDS011;59598;48.112;16.280;2022-11-13T10:53:51;32.42;;;19.27;;
54787;SDS011;59598;48.112;16.280;2022-11-13T10:57:00;31.63;;;18.17;;
54787;SDS011;59598;48.112;16.280;2022-11-13T10:59:54;34.35;;;19.55;;
54787;SDS011;59598;48.112;16.280;2022-11-13T11:02:49;43.72;;;26.83;;
54787;SDS011;59598;48.112;16.280;2022-11-13T11:05:50;45.13;;;31.70;;
54787;SDS011;59598;48.112;16.280;2022-11-13T11:08:47;35.38;;;24.40;;
54787;SDS011;59598;48.112;16.280;2022-11-13T11:11:38;36.33;;;23.20;;
54787;SDS011;59598;48.112;16.280;2022-11-13T11:15:08;41.88;;;27.08;;
54787;SDS011;59598;48.112;16.280;2022-11-13T11:18:37;32.03;;;18.95;;
54787;SDS011;59598;48.112;16.280;2022-11-13T11:21:39;23.30;;;15.07;;
54787;SDS011;59598;48.112;16.280;2022-11-13T11:24:36;27.55;;;17.98;;
54787;SDS011;59598;48.112;16.280;2022-11-13T11:27:43;22.75;;;13.73;;
54787;SDS011;59598;48.112;16.280;2022-11-13T11:30:59;24.58;;;15.65;;
54787;SDS011;59598;48.112;16.280;2022-11-13T11:37:16;35.45;;;23.17;;
54787;SDS011;59598;48.112;16.280;2022-11-13T11:40:15;36.70;;;25.98;;
54787;SDS011;59598;48.112;16.280;2022-11-13T11:43:19;33.72;;;24.13;;
54787;SDS011;59598;48.112;16.280;2022-11-13T11:46:27;30.70;;;18.65;;
54787;SDS011;59598;48.112;16.280;2022-11-13T11:49:21;25.55;;;16.58;;
54787;SDS011;59598;48.112;16.280;2022-11-13T11:52:26;25.10;;;17.50;;
54787;SDS011;59598;48.112;16.280;2022-11-13T11:55:47;54.63;;;40.53;;
54787;SDS011;59598;48.112;16.280;2022-11-13T12:08:38;25.40;;;19.42;;
54787;SDS011;59598;48.112;16.280;2022-11-13T12:15:39;41.55;;;36.13;;
54787;SDS011;59598;48.112;16.280;2022-11-13T12:25:30;71.97;;;61.92;;
54787;SDS011;59598;48.112;16.280;2022-11-13T12:34:46;12.20;;;8.70;;
54787;SDS011;59598;48.112;16.280;2022-11-13T12:47:08;53.67;;;48.45;;
54787;SDS011;59598;48.112;16.280;2022-11-13T12:50:04;46.75;;;42.47;;
54787;SDS011;59598;48.112;16.280;2022-11-13T12:53:28;19.40;;;17.25;;
54787;SDS011;59598;48.112;16.280;2022-11-13T13:08:22;17.58;;;13.98;;
54787;SDS011;59598;48.112;16.280;2022-11-13T13:16:02;17.10;;;11.63;;
54787;SDS011;59598;48.112;16.280;2022-11-13T13:18:30;20.30;;;15.52;;
54787;SDS011;59598;48.112;16.280;2022-11-13T13:21:26;14.82;;;9.95;;
54787;SDS011;59598;48.112;16.280;2022-11-13T13:24:33;26.02;;;21.20;;
54787;SDS011;59598;48.112;16.280;2022-11-13T13:27:27;14.70;;;10.52;;
54787;SDS011;59598;48.112;16.280;2022-11-13T13:30:25;15.63;;;9.70;;
54787;SDS011;59598;48.112;16.280;2022-11-13T13:33:24;25.23;;;17.13;;
54787;SDS011;59598;48.112;16.280;2022-11-13T13:46:32;44.45;;;27.45;;
54787;SDS011;59598;48.112;16.280;2022-11-13T13:49:26;79.70;;;58.17;;
54787;SDS011;59598;48.112;16.280;2022-11-13T13:52:26;86.82;;;61.03;;
54787;SDS011;59598;48.112;16.280;2022-11-13T13:58:23;16.55;;;12.45;;
54787;SDS011;59598;48.112;16.280;2022-11-13T14:01:28;17.02;;;11.77;;
54787;SDS011;59598;48.112;16.280;2022-11-13T14:04:22;22.40;;;13.57;;
54787;SDS011;59598;48.112;16.280;2022-11-13T14:07:25;20.35;;;12.40;;
54787;SDS011;59598;48.112;16.280;2022-11-13T14:10:26;20.85;;;15.80;;
54787;SDS011;59598;48.112;16.280;2022-11-13T14:13:22;23.50;;;13.85;;
54787;SDS011;59598;48.112;16.280;2022-11-13T14:16:17;29.20;;;19.35;;
54787;SDS011;59598;48.112;16.280;2022-11-13T14:19:13;33.58;;;24.60;;
54787;SDS011;59598;48.112;16.280;2022-11-13T14:22:07;27.38;;;16.38;;
54787;SDS011;59598;48.112;16.280;2022-11-13T14:25:11;23.55;;;14.43;;
54787;SDS011;59598;48.112;16.280;2022-11-13T14:28:12;26.10;;;18.30;;
54787;SDS011;59598;48.112;16.280;2022-11-13T14:31:06;21.02;;;13.23;;
54787;SDS011;59598;48.112;16.280;2022-11-13T14:34:07;23.30;;;13.52;;
54787;SDS011;59598;48.112;16.280;2022-11-13T14:37:23;23.58;;;13.70;;
54787;SDS011;59598;48.112;16.280;2022-11-13T14:40:23;19.40;;;12.43;;
54787;SDS011;59598;48.112;16.280;2022-11-13T14:43:21;20.83;;;13.23;;
54787;SDS011;59598;48.112;16.280;2022-11-13T14:49:35;741.33;;;583.17;;
54787;SDS011;59598;48.112;16.280;2022-11-13T14:52:29;284.48;;;241.65;;
54787;SDS011;59598;48.112;16.280;2022-11-13T14:55:22;65.85;;;47.55;;
54787;SDS011;59598;48.112;16.280;2022-11-13T14:58:37;257.80;;;231.07;;
54787;SDS011;59598;48.112;16.280;2022-11-13T15:01:35;81.75;;;72.95;;
54787;SDS011;59598;48.112;16.280;2022-11-13T15:04:27;174.75;;;156.25;;
54787;SDS011;59598;48.112;16.280;2022-11-13T15:10:27;34.95;;;24.08;;
54787;SDS011;59598;48.112;16.280;2022-11-13T15:13:22;29.17;;;16.65;;
54787;SDS011;59598;48.112;16.280;2022-11-13T15:16:14;33.25;;;21.55;;
54787;SDS011;59598;48.112;16.280;2022-11-13T15:19:15;39.17;;;24.17;;
54787;SDS011;59598;48.112;16.280;2022-11-13T15:22:11;84.82;;;52.55;;
54787;SDS011;59598;48.112;16.280;2022-11-13T15:25:08;34.67;;;23.83;;
54787;SDS011;59598;48.112;16.280;2022-11-13T15:28:09;29.13;;;17.00;;
54787;SDS011;59598;48.112;16.280;2022-11-13T15:31:04;30.73;;;16.77;;
54787;SDS011;59598;48.112;16.280;2022-11-13T15:37:00;30.25;;;18.27;;
54787;SDS011;59598;48.112;16.280;2022-11-13T15:39:52;48.85;;;31.17;;
54787;SDS011;59598;48.112;16.280;2022-11-13T15:42:46;63.58;;;41.65;;
54787;SDS011;59598;48.112;16.280;2022-11-13T15:45:38;48.40;;;34.78;;
54787;SDS011;59598;48.112;16.280;2022-11-13T15:48:30;43.83;;;31.27;;
54787;SDS011;59598;48.112;16.280;2022-11-13T15:54:33;230.07;;;195.95;;
54787;SDS011;59598;48.112;16.280;2022-11-13T15:57:28;91.55;;;64.53;;
54787;SDS011;59598;48.112;16.280;2022-11-13T16:00:23;172.52;;;121.85;;
54787;SDS011;59598;48.112;16.280;2022-11-13T16:03:19;476.80;;;306.70;;
54787;SDS011;59598;48.112;16.280;2022-11-13T16:06:12;250.70;;;141.65;;
54787;SDS011;59598;48.112;16.280;2022-11-13T16:09:13;171.20;;;84.45;;
54787;SDS011;59598;48.112;16.280;2022-11-13T16:12:05;364.75;;;190.30;;
54787;SDS011;59598;48.112;16.280;2022-11-13T16:14:57;255.20;;;124.75;;
54787;SDS011;59598;48.112;16.280;2022-11-13T16:17:52;299.20;;;170.93;;
54787;SDS011;59598;48.112;16.280;2022-11-13T16:20:47;51.60;;;30.13;;
54787;SDS011;59598;48.112;16.280;2022-11-13T16:23:40;52.75;;;32.53;;
54787;SDS011;59598;48.112;16.280;2022-11-13T16:26:32;48.22;;;27.38;;
54787;SDS011;59598;48.112;16.280;2022-11-13T16:29:24;100.03;;;59.30;;
54787;SDS011;59598;48.112;16.280;2022-11-13T16:35:11;38.53;;;22.02;;
54787;SDS011;59598;48.112;16.280;2022-11-13T16:38:13;70.20;;;43.20;;
54787;SDS011;59598;48.112;16.280;2022-11-13T16:41:05;148.18;;;103.43;;
54787;SDS011;59598;48.112;16.280;2022-11-13T16:43:56;81.80;;;51.50;;
54787;SDS011;59598;48.112;16.280;2022-11-13T16:46:56;139.57;;;92.15;;
54787;SDS011;59598;48.112;16.280;2022-11-13T16:49:47;113.50;;;83.45;;
54787;SDS011;59598;48.112;16.280;2022-11-13T16:52:41;68.57;;;49.92;;
54787;SDS011;59598;48.112;16.280;2022-11-13T16:55:37;47.17;;;27.05;;
54787;SDS011;59598;48.112;16.280;2022-11-13T16:58:29;59.88;;;33.67;;
54787;SDS011;59598;48.112;16.280;2022-11-13T17:01:20;40.13;;;22.02;;
54787;SDS011;59598;48.112;16.280;2022-11-13T17:04:18;48.40;;;24.83;;
54787;SDS011;59598;48.112;16.280;2022-11-13T17:07:12;49.15;;;24.77;;
54787;SDS011;59598;48.112;16.280;2022-11-13T17:10:04;41.15;;;21.98;;
54787;SDS011;59598;48.112;16.280;2022-11-13T17:13:07;48.15;;;22.20;;
54787;SDS011;59598;48.112;16.280;2022-11-13T17:15:59;45.05;;;24.35;;
54787;SDS011;59598;48.112;16.280;2022-11-13T17:18:54;39.92;;;20.45;;
54787;SDS011;59598;48.112;16.280;2022-11-13T17:21:48;45.50;;;23.52;;
54787;SDS011;59598;48.112;16.280;2022-11-13T17:24:39;39.40;;;22.25;;
54787;SDS011;59598;48.112;16.280;2022-11-13T17:27:31;44.13;;;22.98;;
54787;SDS011;59598;48.112;16.280;2022-11-13T17:30:22;40.85;;;21.92;;
54787;SDS011;59598;48.112;16.280;2022-11-13T17:33:14;43.63;;;23.08;;
54787;SDS011;59598;48.112;16.280;2022-11-13T17:36:06;43.40;;;22.55;;
54787;SDS011;59598;48.112;16.280;2022-11-13T17:38:58;47.40;;;23.48;;
54787;SDS011;59598;48.112;16.280;2022-11-13T17:41:50;48.30;;;21.95;;
54787;SDS011;59598;48.112;16.280;2022-11-13T17:44:41;49.30;;;24.58;;
54787;SDS011;59598;48.112;16.280;2022-11-13T17:47:33;45.80;;;24.30;;
54787;SDS011;59598;48.112;16.280;2022-11-13T17:50:24;46.20;;;24.27;;
54787;SDS011;59598;48.112;16.280;2022-11-13T17:53:18;46.55;;;22.88;;
54787;SDS011;59598;48.112;16.280;2022-11-13T17:56:11;47.65;;;23.83;;
54787;SDS011;59598;48.112;16.280;2022-11-13T17:59:09;45.40;;;23.05;;
54787;SDS011;59598;48.112;16.280;2022-11-13T18:02:01;46.55;;;24.92;;
54787;SDS011;59598;48.112;16.280;2022-11-13T18:04:52;50.72;;;24.67;;
54787;SDS011;59598;48.112;16.280;2022-11-13T18:07:46;39.42;;;21.05;;
54787;SDS011;59598;48.112;16.280;2022-11-13T18:10:38;45.15;;;24.10;;
54787;SDS011;59598;48.112;16.280;2022-11-13T18:16:28;45.28;;;22.58;;
54787;SDS011;59598;48.112;16.280;2022-11-13T18:19:29;44.72;;;23.15;;
54787;SDS011;59598;48.112;16.280;2022-11-13T18:22:26;49.80;;;24.55;;
54787;SDS011;59598;48.112;16.280;2022-11-13T18:25:20;45.45;;;22.85;;
54787;SDS011;59598;48.112;16.280;2022-11-13T18:28:11;50.47;;;25.17;;
54787;SDS011;59598;48.112;16.280;2022-11-13T18:31:07;50.22;;;26.13;;
54787;SDS011;59598;48.112;16.280;2022-11-13T18:34:01;52.85;;;26.73;;
54787;SDS011;59598;48.112;16.280;2022-11-13T18:36:57;48.25;;;24.80;;
54787;SDS011;59598;48.112;16.280;2022-11-13T18:39:49;51.83;;;25.20;;
54787;SDS011;59598;48.112;16.280;2022-11-13T18:42:40;52.63;;;26.50;;